Time;durP1;ratioP1;P1;durP2;ratioP2;P2;SDS_P1;SDS_P2;PMS_P1;PMS_P2;Temp;Humidity;BMP_temperature;BMP_pressure;BME280_temperature;BME280_humidity;BME280_pressure;Samples;Min_cycle;Max_cycle;Signal;HPM_P1;HPM_P2
2021/12/19 00:01:05;;;;;;;16.02;8.00;;;;;;;-1.41;nan;95703.59;6185625;23;20028;-85
2021/12/19 00:08:59;;;;;;;13.90;7.25;;;;;;;-2.67;nan;95462.47;6181977;23;20016;-86
2021/12/19 00:11:26;;;;;;;14.23;7.78;;;;;;;-1.33;nan;95695.66;6183491;23;20013;-85
2021/12/19 00:13:52;;;;;;;12.13;7.03;;;;;;;-2.90;nan;95449.66;6157237;23;20005;-85
2021/12/19 00:16:18;;;;;;;12.75;7.38;;;;;;;-0.73;nan;95770.63;6157265;23;20005;-86
2021/12/19 00:18:46;;;;;;;15.27;7.88;;;;;;;-2.16;nan;95574.06;6157894;23;20012;-85
2021/12/19 00:21:14;;;;;;;16.50;8.32;;;;;;;-1.35;nan;95715.84;6184244;23;20000;-85
2021/12/19 00:23:41;;;;;;;11.35;6.80;;;;;;;-4.34;nan;95229.25;6184828;23;20080;-86
2021/12/19 00:26:07;;;;;;;12.43;7.07;;;;;;;-1.06;nan;95785.97;6183769;23;20057;-85
2021/12/19 00:28:32;;;;;;;17.73;8.50;;;;;;;-2.27;nan;95614.31;6157658;23;20152;-85
2021/12/19 00:30:58;;;;;;;20.63;8.45;;;;;;;-1.76;nan;95682.66;6184113;23;20068;-85
2021/12/19 00:33:23;;;;;;;14.85;8.00;;;;;;;-1.72;nan;95673.47;6183893;23;20005;-85
2021/12/19 00:35:49;;;;;;;14.98;8.43;;;;;;;-0.97;nan;95778.84;6183987;23;20009;-85
2021/12/19 00:38:14;;;;;;;20.55;8.93;;;;;;;-1.78;nan;95634.41;6158010;23;20019;-85
2021/12/19 00:40:40;;;;;;;17.30;9.27;;;;;;;-1.53;nan;95677.28;6158177;23;20385;-85
2021/12/19 00:43:12;;;;;;;18.42;9.35;;;;;;;-1.98;nan;95636.81;6159012;23;20009;-85
2021/12/19 00:45:40;;;;;;;17.23;9.65;;;;;;;-2.89;nan;95491.97;6163350;23;20072;-85
2021/12/19 00:48:08;;;;;;;17.63;9.75;;;;;;;-1.65;nan;95699.56;6184774;23;20005;-86
2021/12/19 00:50:35;;;;;;;20.00;10.70;;;;;;;-1.35;nan;95747.06;6157486;23;20424;-85
2021/12/19 00:53:02;;;;;;;26.58;11.07;;;;;;;-1.55;nan;95715.66;6184136;23;20009;-85
2021/12/19 00:55:28;;;;;;;20.55;10.93;;;;;;;-1.62;nan;95686.19;6157669;23;20116;-86
2021/12/19 00:57:54;;;;;;;17.83;10.18;;;;;;;-2.00;nan;95631.00;6184198;23;20012;-86
2021/12/19 01:00:24;;;;;;;19.83;10.20;;;;;;;-2.16;nan;95618.25;6157788;23;20087;-85
2021/12/19 01:02:52;;;;;;;22.42;12.02;;;;;;;-1.61;nan;95698.22;6158262;23;20491;-86
2021/12/19 01:05:18;;;;;;;23.20;10.98;;;;;;;-2.00;nan;95612.81;6157162;23;20067;-85
2021/12/19 01:07:44;;;;;;;19.98;10.85;;;;;;;-1.76;nan;95658.44;6184173;23;20015;-84
2021/12/19 01:10:10;;;;;;;18.23;10.00;;;;;;;-1.29;nan;95760.13;6157632;23;20023;-85
2021/12/19 01:12:38;;;;;;;23.08;11.57;;;;;;;-1.43;nan;95757.59;6156925;23;20696;-86
2021/12/19 01:15:11;;;;;;;23.52;10.55;;;;;;;-1.55;nan;95728.66;6157382;23;20005;-85
2021/12/19 01:17:37;;;;;;;20.55;10.82;;;;;;;-3.88;nan;95350.75;6157398;23;20656;-85
2021/12/19 01:20:06;;;;;;;24.73;11.95;;;;;;;-1.83;nan;95689.56;6184062;23;20352;-85
2021/12/19 01:22:32;;;;;;;21.50;11.63;;;;;;;-1.71;nan;95680.28;6157094;23;20032;-84
2021/12/19 01:24:57;;;;;;;22.60;12.07;;;;;;;-1.61;nan;95693.00;6157054;23;20421;-85
2021/12/19 01:27:23;;;;;;;26.20;12.98;;;;;;;-1.87;nan;95643.31;6157323;23;20361;-85
2021/12/19 01:29:48;;;;;;;23.13;11.40;;;;;;;-2.70;nan;95508.78;6184870;23;20094;-85
2021/12/19 01:32:14;;;;;;;21.75;11.43;;;;;;;-1.73;nan;95655.47;6158471;23;20005;-85
2021/12/19 01:34:39;;;;;;;23.30;11.07;;;;;;;-1.17;nan;95734.44;6184861;23;20035;-85
2021/12/19 01:37:05;;;;;;;19.65;10.70;;;;;;;-1.54;nan;95685.25;6158627;23;20009;-85
2021/12/19 01:39:30;;;;;;;21.23;11.45;;;;;;;-1.31;nan;95733.50;6158812;23;20044;-86
2021/12/19 01:41:58;;;;;;;17.90;10.65;;;;;;;-2.40;nan;95583.81;6158530;23;20032;-85
2021/12/19 01:44:25;;;;;;;22.08;10.52;;;;;;;-3.48;nan;95372.78;6185380;23;20036;-86
2021/12/19 01:46:52;;;;;;;19.60;11.32;;;;;;;-3.85;nan;95344.41;6185482;23;20004;-85
2021/12/19 01:49:21;;;;;;;22.50;11.68;;;;;;;-1.25;nan;95714.53;6185660;23;20086;-85
2021/12/19 01:51:47;;;;;;;21.55;11.80;;;;;;;-1.75;nan;95626.22;6185426;23;20013;-85
2021/12/19 01:54:14;;;;;;;24.92;11.30;;;;;;;-1.12;nan;95721.66;6158342;23;20208;-85
2021/12/19 01:56:40;;;;;;;37.03;14.35;;;;;;;-1.07;nan;95718.50;6185730;23;20397;-85
2021/12/19 01:59:10;;;;;;;21.65;11.88;;;;;;;-1.69;nan;95612.50;6158683;23;20037;-85
2021/12/19 02:01:48;;;;;;;19.20;10.68;;;;;;;-2.04;nan;95570.78;6185207;23;20313;-85
2021/12/19 02:04:15;;;;;;;25.15;11.48;;;;;;;-1.23;nan;95707.38;6158556;23;20035;-83
2021/12/19 02:06:41;;;;;;;15.90;9.45;;;;;;;-1.70;nan;95629.09;6185148;23;20088;-85
2021/12/19 02:09:07;;;;;;;15.73;9.38;;;;;;;-1.75;nan;95628.81;6185409;23;20033;-85
2021/12/19 02:11:35;;;;;;;18.98;11.40;;;;;;;-2.26;nan;95547.56;6184823;23;20013;-85
2021/12/19 02:14:01;;;;;;;27.17;11.43;;;;;;;-1.83;nan;95619.34;6158350;23;20004;-85
2021/12/19 02:16:27;;;;;;;18.30;10.18;;;;;;;-2.23;nan;95531.63;6158710;23;20016;-85
2021/12/19 02:18:53;;;;;;;18.75;11.27;;;;;;;-1.37;nan;95658.78;6158361;23;20083;-85
2021/12/19 02:21:18;;;;;;;16.80;10.05;;;;;;;-1.56;nan;95617.81;6159006;23;20401;-85
2021/12/19 02:23:44;;;;;;;16.83;10.77;;;;;;;-1.39;nan;95654.78;6157571;23;20015;-85
2021/12/19 02:26:09;;;;;;;17.25;11.38;;;;;;;-1.60;nan;95634.78;6158800;23;19998;-85
2021/12/19 02:28:35;;;;;;;18.23;10.50;;;;;;;-1.52;nan;95626.03;6158586;23;20009;-85
2021/12/19 02:31:00;;;;;;;26.45;11.43;;;;;;;-1.82;nan;95591.56;6184708;23;20357;-85
2021/12/19 02:33:30;;;;;;;21.67;11.65;;;;;;;-1.87;nan;95547.94;6157903;23;20012;-85
2021/12/19 02:36:21;;;;;;;20.08;11.27;;;;;;;-1.34;nan;95652.41;6185688;23;20067;-87
2021/12/19 02:39:41;;;;;;;18.95;11.82;;;;;;;-2.03;nan;95545.59;6186517;23;20414;-85
2021/12/19 02:50:09;;;;;;;18.17;10.63;;;;;;;-1.40;nan;95611.53;6178144;23;20078;-85
2021/12/19 02:52:35;;;;;;;20.10;11.88;;;;;;;-0.94;nan;95671.72;6159047;23;20017;-85
2021/12/19 02:55:00;;;;;;;23.77;12.07;;;;;;;-1.39;nan;95585.34;6185614;23;20539;-85
2021/12/19 02:57:26;;;;;;;22.23;11.90;;;;;;;-0.79;nan;95677.66;6158663;23;20421;-85
2021/12/19 02:59:51;;;;;;;19.75;10.95;;;;;;;-1.45;nan;95583.47;6158561;23;20009;-85
2021/12/19 03:02:18;;;;;;;19.20;10.82;;;;;;;-0.92;nan;95648.94;6159538;23;20425;-85
2021/12/19 03:05:00;;;;;;;19.85;11.55;;;;;;;-1.34;nan;95590.78;6160609;23;20009;-85
2021/12/19 03:07:27;;;;;;;18.15;10.55;;;;;;;-1.35;nan;95577.94;6164031;23;20005;-85
2021/12/19 03:18:15;;;;;;;19.83;11.38;;;;;;;-2.35;nan;95438.59;6186130;23;20107;-86
2021/12/19 03:20:45;;;;;;;17.63;9.65;;;;;;;-1.30;nan;95601.63;6158644;23;20009;-86
2021/12/19 03:23:13;;;;;;;21.60;10.63;;;;;;;-1.39;nan;95584.53;6159522;23;20139;-86
2021/12/19 03:25:39;;;;;;;21.88;11.57;;;;;;;-1.58;nan;95557.38;6187761;23;20005;-85
2021/12/19 03:28:06;;;;;;;19.90;11.07;;;;;;;-0.96;nan;95669.31;6158601;23;20016;-86
2021/12/19 03:30:35;;;;;;;17.85;10.77;;;;;;;-1.80;nan;95556.59;6157851;23;20031;-86
2021/12/19 03:33:01;;;;;;;19.48;10.68;;;;;;;-1.73;nan;95569.66;6184117;23;20040;-86
2021/12/19 03:35:29;;;;;;;16.98;10.40;;;;;;;-1.05;nan;95660.03;6185112;23;20150;-85
2021/12/19 03:37:55;;;;;;;14.23;9.70;;;;;;;-1.49;nan;95608.25;6158755;23;20032;-85
2021/12/19 03:40:35;;;;;;;17.38;10.23;;;;;;;-1.61;nan;95618.38;6185203;23;20012;-85
2021/12/19 03:43:22;;;;;;;18.80;10.75;;;;;;;-1.87;nan;95553.16;6158337;23;20083;-86
2021/12/19 03:45:48;;;;;;;19.05;11.32;;;;;;;-1.97;nan;95555.25;6183842;23;20405;-85
2021/12/19 03:48:16;;;;;;;19.35;10.90;;;;;;;-2.14;nan;95530.53;6158657;23;20013;-86
2021/12/19 03:50:45;;;;;;;20.05;10.80;;;;;;;-1.24;nan;95658.91;6184613;23;20451;-85
2021/12/19 03:53:13;;;;;;;17.58;10.80;;;;;;;-1.97;nan;95531.84;6157739;23;20017;-85
2021/12/19 03:55:40;;;;;;;24.15;12.00;;;;;;;-1.23;nan;95649.31;6158547;23;20013;-86
2021/12/19 03:58:06;;;;;;;18.40;11.50;;;;;;;-1.66;nan;95573.09;6158074;23;20009;-85
2021/12/19 04:00:32;;;;;;;22.23;10.68;;;;;;;-1.08;nan;95644.00;6158295;23;20416;-85
2021/12/19 04:03:04;;;;;;;20.52;10.52;;;;;;;-2.66;nan;95434.72;6185280;23;20016;-86
2021/12/19 04:05:31;;;;;;;17.67;10.63;;;;;;;-1.80;nan;95608.59;6158229;23;20118;-86
2021/12/19 04:07:57;;;;;;;20.35;10.52;;;;;;;-1.85;nan;95565.97;6157483;23;20096;-86
2021/12/19 04:10:24;;;;;;;19.83;11.00;;;;;;;-2.31;nan;95521.34;6157640;23;20039;-86
2021/12/19 04:12:50;;;;;;;17.88;11.38;;;;;;;-1.59;nan;95626.78;6157707;23;20055;-85
2021/12/19 04:15:16;;;;;;;18.42;10.40;;;;;;;-3.01;nan;95389.66;6157877;23;20099;-86
2021/12/19 04:17:42;;;;;;;18.33;10.05;;;;;;;-2.43;nan;95490.66;6184405;23;20029;-86
2021/12/19 04:20:08;;;;;;;19.58;10.75;;;;;;;-2.93;nan;95398.13;6157680;23;20032;-86
2021/12/19 04:22:34;;;;;;;23.77;10.60;;;;;;;-2.07;nan;95521.78;6157214;23;20005;-86
2021/12/19 04:24:59;;;;;;;20.98;10.82;;;;;;;-1.32;nan;95640.81;6157858;23;20017;-86
2021/12/19 04:27:25;;;;;;;21.80;11.05;;;;;;;-2.24;nan;95514.44;6184019;23;20090;-86
2021/12/19 04:29:53;;;;;;;17.17;9.50;;;;;;;-1.38;nan;95618.16;6157988;23;20090;-85
2021/12/19 04:32:21;;;;;;;20.80;9.93;;;;;;;-2.87;nan;95397.38;6158621;23;20012;-86
2021/12/19 04:34:46;;;;;;;18.33;11.02;;;;;;;-2.07;nan;95493.22;6153842;23;20026;-86
2021/12/19 04:37:34;;;;;;;18.27;10.05;;;;;;;-2.67;nan;95414.94;6155356;23;20016;-85
2021/12/19 04:40:09;;;;;;;20.52;9.02;;;;;;;-2.10;nan;95568.13;6154514;23;20012;-86
2021/12/19 04:53:22;;;;;;;19.08;10.35;;;;;;;-1.83;nan;95530.97;6154996;23;20343;-86
2021/12/19 04:56:17;;;;;;;20.30;9.90;;;;;;;-1.63;nan;95564.94;6153044;23;20067;-86
2021/12/19 05:01:28;;;;;;;19.83;10.25;;;;;;;-1.34;nan;95590.78;6155505;23;20084;-85
2021/12/19 05:14:40;;;;;;;21.60;10.85;;;;;;;-1.36;nan;95564.13;6157214;23;20112;-86
2021/12/19 05:17:09;;;;;;;19.98;10.68;;;;;;;-4.13;nan;95139.66;6156868;23;20002;-85
2021/12/19 05:19:49;;;;;;;21.50;11.27;;;;;;;-2.40;nan;95434.97;6155573;23;20473;-85
2021/12/19 05:22:15;;;;;;;24.35;10.98;;;;;;;-2.34;nan;95418.63;6155485;23;20012;-85
2021/12/19 05:25:22;;;;;;;18.23;10.80;;;;;;;-1.38;nan;95567.94;6155153;23;20090;-85
2021/12/19 05:27:29;;;;;;;24.20;10.98;;;;;;;-1.21;nan;95558.81;6144024;23;20389;-85
2021/12/19 05:29:54;;;;;;;23.92;11.32;;;;;;;-1.56;nan;95490.38;6153233;23;20010;-86
2021/12/19 05:32:19;;;;;;;20.63;11.27;;;;;;;-2.19;nan;95375.16;6153088;23;20360;-86
2021/12/19 05:34:45;;;;;;;21.38;11.45;;;;;;;-1.19;nan;95555.03;6154384;23;20053;-86
2021/12/19 05:45:22;;;;;;;26.27;11.40;;;;;;;-1.51;nan;95515.78;6157752;23;20117;-86
2021/12/19 05:47:50;;;;;;;24.73;11.63;;;;;;;-1.66;nan;95521.09;6155951;23;21995;-85
2021/12/19 05:50:18;;;;;;;23.20;11.35;;;;;;;-1.70;nan;95505.09;6156524;23;20002;-85
2021/12/19 05:52:45;;;;;;;23.20;11.75;;;;;;;-1.09;nan;95608.56;6154508;23;20093;-86
2021/12/19 05:55:11;;;;;;;36.05;12.73;;;;;;;-1.49;nan;95542.44;6152316;23;20110;-85
2021/12/19 05:57:37;;;;;;;20.42;11.13;;;;;;;-1.16;nan;95587.69;6156066;23;20464;-85
2021/12/19 06:00:09;;;;;;;23.02;11.43;;;;;;;-1.71;nan;95518.28;6154621;23;20373;-85
2021/12/19 06:02:35;;;;;;;20.63;10.90;;;;;;;-2.71;nan;95349.59;6154874;23;20092;-85
2021/12/19 06:05:02;;;;;;;24.95;11.10;;;;;;;-1.80;nan;95496.81;6155684;23;20068;-86
2021/12/19 06:07:27;;;;;;;21.08;11.85;;;;;;;-2.11;nan;95483.34;6154759;23;20020;-86
2021/12/19 06:09:53;;;;;;;21.33;11.63;;;;;;;-2.11;nan;95468.56;6154141;23;20088;-86
2021/12/19 06:12:18;;;;;;;24.15;11.63;;;;;;;-2.58;nan;95377.47;6154651;23;20010;-85
2021/12/19 06:14:44;;;;;;;24.05;10.95;;;;;;;-1.62;nan;95507.53;6152479;23;20026;-86
2021/12/19 06:17:09;;;;;;;30.10;12.32;;;;;;;-1.91;nan;95444.53;6154063;23;20013;-85
2021/12/19 06:19:36;;;;;;;24.00;11.55;;;;;;;-1.42;nan;95525.88;6154241;23;20174;-86
2021/12/19 06:22:06;;;;;;;19.92;10.45;;;;;;;-1.86;nan;95429.97;6154244;23;20053;-86
2021/12/19 06:24:32;;;;;;;20.63;11.32;;;;;;;-1.09;nan;95561.69;6156302;23;20080;-85
2021/12/19 06:27:00;;;;;;;20.88;11.32;;;;;;;-1.09;nan;95549.50;6154696;23;20009;-85
2021/12/19 06:29:30;;;;;;;27.55;11.40;;;;;;;-1.35;nan;95505.91;6154620;23;20017;-85
2021/12/19 06:31:56;;;;;;;24.23;11.70;;;;;;;-3.09;nan;95221.94;6155421;23;20014;-86
2021/12/19 06:34:22;;;;;;;21.60;10.57;;;;;;;-1.66;nan;95449.09;6159621;23;20048;-85
2021/12/19 06:36:48;;;;;;;20.67;11.30;;;;;;;-1.68;nan;95451.06;6186266;23;20349;-85
2021/12/19 06:39:13;;;;;;;18.80;10.60;;;;;;;-1.81;nan;95429.38;6186152;23;20015;-85
2021/12/19 06:41:39;;;;;;;26.60;11.77;;;;;;;-1.70;nan;95436.66;6159681;23;20005;-86
2021/12/19 06:44:05;;;;;;;20.60;12.45;;;;;;;-1.07;nan;95552.72;6159397;23;20031;-85
2021/12/19 06:46:31;;;;;;;25.85;11.85;;;;;;;-2.03;nan;95418.25;6185565;23;20016;-85
2021/12/19 06:48:57;;;;;;;27.77;13.88;;;;;;;-1.99;nan;95401.31;6158743;23;20005;-86
2021/12/19 06:51:22;;;;;;;24.08;12.23;;;;;;;-1.11;nan;95535.06;6159181;23;20006;-85
2021/12/19 06:53:48;;;;;;;24.90;11.75;;;;;;;-1.31;nan;95503.72;6159386;23;20041;-85
2021/12/19 06:56:14;;;;;;;33.78;13.20;;;;;;;-1.98;nan;95389.88;6159005;23;20059;-85
2021/12/19 06:58:40;;;;;;;24.15;12.05;;;;;;;-2.39;nan;95354.25;6186292;23;20012;-85
2021/12/19 07:01:05;;;;;;;21.33;10.95;;;;;;;-1.98;nan;95400.28;6160284;23;20036;-85
2021/12/19 07:03:31;;;;;;;28.02;13.25;;;;;;;-1.58;nan;95455.94;6185998;23;20101;-85
2021/12/19 07:05:56;;;;;;;26.85;11.60;;;;;;;-1.30;nan;95487.13;6158760;23;20522;-85
2021/12/19 07:08:22;;;;;;;26.77;12.00;;;;;;;-1.97;nan;95368.91;6159148;23;20188;-85
2021/12/19 07:10:48;;;;;;;26.35;13.77;;;;;;;-4.04;nan;95033.13;6186225;23;20019;-85
2021/12/19 07:13:19;;;;;;;27.52;14.95;;;;;;;-1.99;nan;95378.72;6159722;23;20017;-85
2021/12/19 07:15:45;;;;;;;;;;;;;;;-0.87;nan;95532.78;6186560;23;20012;-85
2021/12/19 07:18:10;;;;;;;30.90;14.88;;;;;;;-1.73;nan;95419.66;6159657;23;20313;-85
2021/12/19 07:20:41;;;;;;;31.40;16.10;;;;;;;-1.53;nan;95430.19;6158607;23;20015;-86
2021/12/19 07:23:07;;;;;;;34.03;15.38;;;;;;;-1.70;nan;95397.66;6158081;23;20009;-86
2021/12/19 07:25:32;;;;;;;30.08;15.77;;;;;;;-1.44;nan;95429.00;6158957;23;20113;-85
2021/12/19 07:27:57;;;;;;;27.63;13.25;;;;;;;-2.53;nan;95232.31;6158621;23;20015;-85
2021/12/19 07:30:25;;;;;;;27.05;13.85;;;;;;;-3.58;nan;95064.59;6185599;23;20017;-85
2021/12/19 07:32:51;;;;;;;27.23;13.52;;;;;;;-1.46;nan;95384.19;6159170;23;20005;-86
2021/12/19 07:35:17;;;;;;;21.30;11.60;;;;;;;-0.73;nan;95504.97;6187122;23;20049;-85
2021/12/19 07:37:45;;;;;;;24.33;13.43;;;;;;;-1.62;nan;95368.91;6160358;23;20019;-85
2021/12/19 07:40:16;;;;;;;23.38;11.15;;;;;;;-0.44;nan;95527.31;6185966;23;20483;-85
2021/12/19 07:42:43;;;;;;;28.48;13.35;;;;;;;-1.09;nan;95406.34;6159797;23;20538;-85
2021/12/19 07:45:10;;;;;;;33.83;13.70;;;;;;;-0.26;nan;95522.34;6159352;23;20063;-86
2021/12/19 07:47:38;;;;;;;30.45;13.32;;;;;;;-1.64;nan;95369.09;6158953;23;20585;-86
2021/12/19 07:50:04;;;;;;;24.58;12.93;;;;;;;-1.64;nan;95332.69;6186387;23;20349;-85
2021/12/19 07:52:30;;;;;;;25.05;11.70;;;;;;;-4.45;nan;94884.66;6185725;23;20354;-85
2021/12/19 07:54:55;;;;;;;25.10;12.70;;;;;;;-1.80;nan;95283.63;6160248;23;20016;-86
2021/12/19 07:57:21;;;;;;;30.63;13.07;;;;;;;-1.91;nan;95254.78;6186215;23;20116;-86
2021/12/19 07:59:46;;;;;;;32.35;14.90;;;;;;;-0.47;nan;95476.41;6159736;23;20015;-85
2021/12/19 08:02:12;;;;;;;27.30;13.48;;;;;;;-0.86;nan;95426.81;6159983;23;20011;-87
2021/12/19 08:04:37;;;;;;;32.60;13.23;;;;;;;-0.91;nan;95397.94;6160809;23;20020;-87
2021/12/19 08:07:03;;;;;;;29.23;12.05;;;;;;;-0.81;nan;95401.78;6161424;23;20075;-85
2021/12/19 08:09:37;;;;;;;28.33;11.82;;;;;;;-0.40;nan;95458.19;6161864;23;20013;-85
2021/12/19 08:12:04;;;;;;;35.00;12.85;;;;;;;-1.44;nan;95259.91;6162157;23;20040;-85
2021/12/19 08:14:30;;;;;;;26.05;13.13;;;;;;;-0.34;nan;95438.34;6160784;23;20009;-86
2021/12/19 08:16:55;;;;;;;36.67;13.05;;;;;;;-0.56;nan;95394.22;6160421;23;20009;-86
2021/12/19 08:19:21;;;;;;;27.65;11.88;;;;;;;-2.83;nan;95063.81;6187496;23;20005;-86
2021/12/19 08:21:46;;;;;;;26.73;11.93;;;;;;;-0.39;nan;95407.69;6160488;23;20009;-85
2021/12/19 08:24:13;;;;;;;26.95;12.32;;;;;;;-1.69;nan;95173.06;6187274;23;20002;-86
2021/12/19 08:26:42;;;;;;;24.92;13.05;;;;;;;0.03;nan;95469.03;6162306;23;20342;-85
2021/12/19 08:29:08;;;;;;;47.08;13.85;;;;;;;-1.79;nan;95129.25;6165310;23;20027;-84
2021/12/19 08:31:34;;;;;;;28.23;13.63;;;;;;;-0.65;nan;95304.25;6167203;23;20024;-85
2021/12/19 08:34:00;;;;;;;28.42;12.50;;;;;;;-0.32;nan;95352.94;6161866;23;20095;-85
2021/12/19 08:36:26;;;;;;;27.73;12.95;;;;;;;-0.55;nan;95325.50;6158182;23;20029;-85
2021/12/19 08:38:52;;;;;;;36.38;14.52;;;;;;;-0.60;nan;95291.41;6154910;23;20013;-86
2021/12/19 08:41:18;;;;;;;25.05;13.55;;;;;;;0.10;nan;95446.34;6155197;23;20060;-86
2021/12/19 08:43:43;;;;;;;23.58;12.80;;;;;;;-0.70;nan;95321.50;6154793;23;20013;-86
2021/12/19 08:46:11;;;;;;;44.45;14.57;;;;;;;-0.48;nan;95360.16;6154868;23;20002;-86
2021/12/19 08:48:37;;;;;;;32.72;13.75;;;;;;;-0.41;nan;95339.31;6156694;23;20014;-85
2021/12/19 08:51:04;;;;;;;30.92;13.50;;;;;;;0.38;nan;95446.91;6157343;23;20084;-85
2021/12/19 08:53:29;;;;;;;31.20;13.82;;;;;;;-0.35;nan;95350.72;6154945;23;20020;-85
2021/12/19 08:55:55;;;;;;;30.02;13.50;;;;;;;-2.13;nan;95056.59;6157511;23;20085;-86
2021/12/19 08:58:20;;;;;;;32.47;16.13;;;;;;;-2.35;nan;95024.81;6156025;23;20005;-85
2021/12/19 09:00:46;;;;;;;27.20;12.93;;;;;;;0.21;nan;95440.53;6156049;23;20028;-85
2021/12/19 09:03:11;;;;;;;34.85;15.43;;;;;;;0.08;nan;95429.31;6155419;23;20033;-85
2021/12/19 09:05:37;;;;;;;28.17;15.02;;;;;;;0.47;nan;95465.78;6156133;23;20009;-84
2021/12/19 09:08:04;;;;;;;32.42;13.68;;;;;;;-0.19;nan;95337.28;6156366;23;20036;-85
2021/12/19 09:10:29;;;;;;;30.00;14.50;;;;;;;0.02;nan;95383.97;6157215;23;20021;-85
2021/12/19 09:12:55;;;;;;;25.48;13.95;;;;;;;-0.61;nan;95292.41;6154294;23;20014;-85
2021/12/19 09:15:21;;;;;;;26.58;13.65;;;;;;;0.30;nan;95431.50;6155472;23;20657;-86
2021/12/19 09:17:47;;;;;;;31.02;16.00;;;;;;;-0.55;nan;95309.88;6155163;23;20013;-85
2021/12/19 09:20:13;;;;;;;25.98;13.90;;;;;;;-0.50;nan;95311.84;6154138;23;20012;-84
2021/12/19 09:22:39;;;;;;;28.50;13.80;;;;;;;-0.84;nan;95279.78;6155562;23;20009;-84
2021/12/19 09:25:06;;;;;;;29.80;14.63;;;;;;;-0.55;nan;95332.50;6154198;23;20016;-84
2021/12/19 09:27:31;;;;;;;35.55;15.15;;;;;;;-0.83;nan;95244.94;6155146;23;20088;-84
2021/12/19 09:29:57;;;;;;;26.77;14.43;;;;;;;0.08;nan;95405.84;6154421;23;20013;-85
2021/12/19 09:32:22;;;;;;;28.92;13.15;;;;;;;-0.45;nan;95294.59;6155112;23;20461;-85
2021/12/19 09:34:48;;;;;;;31.80;14.32;;;;;;;0.18;nan;95382.75;6159083;23;20032;-84
2021/12/19 09:37:15;;;;;;;39.28;16.38;;;;;;;0.01;nan;95353.69;6158114;23;20032;-84
2021/12/19 09:39:41;;;;;;;24.77;13.55;;;;;;;0.27;nan;95395.38;6185032;23;20005;-84
2021/12/19 09:42:09;;;;;;;28.45;14.57;;;;;;;-0.52;nan;95261.75;6158637;23;20117;-85
2021/12/19 09:44:39;;;;;;;31.88;16.05;;;;;;;-0.74;nan;95223.91;6158010;23;20047;-85
2021/12/19 09:47:07;;;;;;;32.85;16.50;;;;;;;-2.19;nan;94974.25;6157982;23;20513;-85
2021/12/19 09:49:35;;;;;;;29.38;16.35;;;;;;;-0.03;nan;95329.03;6158593;23;20112;-84
2021/12/19 09:52:02;;;;;;;28.85;15.88;;;;;;;0.54;nan;95383.03;6161148;23;20417;-85
2021/12/19 09:54:28;;;;;;;29.95;15.27;;;;;;;0.51;nan;95370.44;6161478;23;20019;-85
2021/12/19 09:56:54;;;;;;;32.92;16.70;;;;;;;-0.07;nan;95255.63;6186629;23;20009;-84
2021/12/19 09:59:21;;;;;;;40.45;16.60;;;;;;;0.06;nan;95267.03;6161249;23;20011;-84
2021/12/19 10:01:48;;;;;;;30.83;15.05;;;;;;;0.15;nan;95292.69;6160255;23;20012;-85
2021/12/19 10:04:36;;;;;;;33.40;17.08;;;;;;;0.12;nan;95274.03;6160646;23;20333;-86
2021/12/19 10:07:25;;;;;;;34.03;16.83;;;;;;;0.53;nan;95338.91;6160464;23;20036;-86
2021/12/19 10:10:01;;;;;;;31.35;15.52;;;;;;;-0.06;nan;95257.25;6187340;23;20013;-86
2021/12/19 10:13:00;;;;;;;33.50;16.55;;;;;;;-0.03;nan;95275.09;6160950;23;20016;-86
2021/12/19 10:15:34;;;;;;;33.55;17.85;;;;;;;-0.09;nan;95222.97;6186421;23;20004;-86
2021/12/19 10:18:03;;;;;;;33.92;16.58;;;;;;;-1.12;nan;95065.78;6161471;23;20102;-86
2021/12/19 10:20:56;;;;;;;29.75;13.77;;;;;;;0.66;nan;95338.84;6160703;23;20009;-86
2021/12/19 10:23:28;;;;;;;35.22;13.52;;;;;;;-0.23;nan;95184.94;6160586;23;20034;-86
2021/12/19 10:26:06;;;;;;;28.73;15.10;;;;;;;0.60;nan;95317.00;6162132;23;20423;-86
2021/12/19 10:28:32;;;;;;;29.05;13.63;;;;;;;0.08;nan;95218.09;6162669;23;20369;-86
2021/12/19 10:31:00;;;;;;;24.00;12.85;;;;;;;-1.00;nan;95063.34;6162937;23;20444;-86
2021/12/19 10:33:28;;;;;;;31.75;16.75;;;;;;;0.11;nan;95256.78;6162251;23;20013;-86
2021/12/19 10:35:57;;;;;;;28.65;14.70;;;;;;;0.33;nan;95334.56;6160154;23;20032;-86
2021/12/19 10:38:34;;;;;;;31.80;16.00;;;;;;;0.60;nan;95314.38;6188174;23;20460;-86
2021/12/19 10:41:01;;;;;;;38.15;18.05;;;;;;;-0.08;nan;95191.47;6161099;23;20005;-86
2021/12/19 10:43:30;;;;;;;41.50;17.90;;;;;;;0.31;nan;95247.06;6162032;23;20013;-86
2021/12/19 10:45:59;;;;;;;34.17;16.40;;;;;;;-1.35;nan;95016.00;6188255;23;20020;-86
2021/12/19 10:48:40;;;;;;;32.17;17.55;;;;;;;0.64;nan;95281.63;6161668;23;20066;-86
2021/12/19 10:51:09;;;;;;;34.93;16.43;;;;;;;0.61;nan;95302.13;6137279;23;20023;-86
2021/12/19 10:53:44;;;;;;;35.30;17.33;;;;;;;0.56;nan;95284.47;6187968;23;20016;-86
2021/12/19 10:56:17;;;;;;;41.05;18.13;;;;;;;-0.32;nan;95137.44;6160634;23;20071;-86
2021/12/19 10:58:52;;;;;;;41.28;18.05;;;;;;;-0.17;nan;95151.03;6161656;23;20340;-85
2021/12/19 11:01:25;;;;;;;38.15;15.73;;;;;;;0.58;nan;95272.03;6188720;23;20001;-86
2021/12/19 11:03:54;;;;;;;37.33;18.58;;;;;;;0.28;nan;95217.00;6161734;23;20515;-85
2021/12/19 11:06:22;;;;;;;32.88;18.35;;;;;;;0.65;nan;95257.13;6161719;23;20429;-85
2021/12/19 11:08:49;;;;;;;36.15;18.10;;;;;;;-0.86;nan;95010.25;6161167;23;20448;-86
2021/12/19 11:11:32;;;;;;;34.30;18.83;;;;;;;-1.01;nan;94988.88;6162335;23;20013;-86
2021/12/19 11:13:58;;;;;;;36.42;19.17;;;;;;;0.42;nan;95196.84;6156728;23;20313;-84
2021/12/19 11:16:24;;;;;;;43.67;18.65;;;;;;;0.45;nan;95200.84;6159133;23;20807;-85
2021/12/19 11:18:50;;;;;;;41.50;19.38;;;;;;;0.18;nan;95172.28;6158107;23;20056;-85
2021/12/19 11:21:17;;;;;;;41.83;19.27;;;;;;;-0.13;nan;95068.78;6160589;23;20001;-85
2021/12/19 11:24:19;;;;;;;40.05;19.60;;;;;;;0.59;nan;95144.97;6164165;23;20017;-91
2021/12/19 11:26:54;;;;;;;34.20;18.08;;;;;;;0.94;nan;95203.50;6186175;23;20451;-86
2021/12/19 11:29:21;;;;;;;30.55;16.60;;;;;;;0.95;nan;95231.22;6159833;23;20028;-86
2021/12/19 11:31:52;;;;;;;32.15;16.17;;;;;;;0.82;nan;95230.53;6160164;23;20428;-86
2021/12/19 11:34:28;;;;;;;36.60;17.83;;;;;;;0.88;nan;95217.44;6159894;23;20087;-86
2021/12/19 11:36:56;;;;;;;37.58;17.55;;;;;;;0.97;nan;95225.81;6186065;23;20041;-86
2021/12/19 11:39:28;;;;;;;29.30;16.05;;;;;;;-0.09;nan;95084.81;6159892;23;20008;-86
2021/12/19 11:42:08;;;;;;;33.08;16.40;;;;;;;1.01;nan;95216.50;6158876;23;20009;-84
2021/12/19 11:44:46;;;;;;;31.70;16.05;;;;;;;0.15;nan;95089.28;6158801;23;20016;-87
2021/12/19 11:47:15;;;;;;;34.67;16.33;;;;;;;0.54;nan;95142.16;6159958;23;20032;-85
2021/12/19 11:49:41;;;;;;;40.10;15.27;;;;;;;0.99;nan;95200.28;6160419;23;20005;-86
2021/12/19 11:52:27;;;;;;;28.80;15.40;;;;;;;0.97;nan;95187.44;6159751;23;20020;-86
2021/12/19 11:55:14;;;;;;;32.17;15.63;;;;;;;0.96;nan;95190.25;6187169;23;20036;-85
2021/12/19 11:58:03;;;;;;;29.35;15.02;;;;;;;0.45;nan;95120.78;6160526;23;20001;-85
2021/12/19 12:00:32;;;;;;;29.20;15.45;;;;;;;0.57;nan;95119.06;6187685;23;20084;-85
2021/12/19 12:03:12;;;;;;;32.50;17.20;;;;;;;-0.26;nan;94998.50;6159735;23;20365;-86
2021/12/19 12:05:45;;;;;;;38.85;17.95;;;;;;;0.60;nan;95104.81;6159662;23;20015;-85
2021/12/19 12:08:17;;;;;;;37.58;17.58;;;;;;;0.69;nan;95111.31;6159949;23;20032;-86
2021/12/19 12:10:52;;;;;;;37.83;18.23;;;;;;;1.00;nan;95175.75;6159351;23;20013;-86
2021/12/19 12:13:34;;;;;;;41.13;17.85;;;;;;;0.91;nan;95169.22;6153513;23;20025;-85
2021/12/19 12:16:33;;;;;;;36.80;19.58;;;;;;;0.77;nan;95166.69;6154911;23;20580;-85
2021/12/19 12:19:02;;;;;;;44.05;20.00;;;;;;;0.60;nan;95144.75;6154780;23;20522;-85
2021/12/19 12:21:40;;;;;;;34.17;17.15;;;;;;;0.88;nan;95154.75;6154013;23;20010;-86
2021/12/19 12:24:13;;;;;;;39.55;19.45;;;;;;;0.06;nan;95048.03;6155849;23;20398;-85
2021/12/19 12:27:00;;;;;;;40.50;18.88;;;;;;;0.87;nan;95147.13;6154270;23;20033;-85
2021/12/19 12:29:26;;;;;;;43.10;19.20;;;;;;;0.68;nan;95117.59;6153784;23;20009;-85
2021/12/19 12:31:52;;;;;;;45.50;20.25;;;;;;;0.83;nan;95135.53;6154832;23;20377;-85
2021/12/19 12:34:18;;;;;;;36.15;17.45;;;;;;;0.80;nan;95141.16;6154537;23;20006;-84
2021/12/19 12:36:44;;;;;;;34.95;16.25;;;;;;;-2.18;nan;94675.31;6156828;23;20017;-85
2021/12/19 12:39:19;;;;;;;36.95;16.88;;;;;;;0.29;nan;95045.63;6154425;23;20333;-85